• Join FlightAware (Why Join?)
  • Login
  • US Flag 
07:05AM EDT


 

Airport Tracker/Info


-or-


 

Live Flight TrackerFlight Track Log ✈ N384LV ✈ 10-May-2013 ✈ KMTN - 47N

Flight Track Log - Related Links

Times and Time Zones

All times are in EDT time to prevent confusion due to time zone crossing. See the N384LV flight status page for this flight to view local times or setup timezone preferences in your user account.

Time Position Orientation Groundspeed Altitude Reporting Facility
EDT Latitude Longitude Course Direction KTS MPH feet Rate Location/Type
01:20PM 39.7000 -76.1333 49° Northeast 146 168 4,500  Level Potomac TRACON
01:22PM 39.7500 -76.0500 52° Northeast 145 167 4,600  Climbing Philadelphia TRACON
01:23PM 39.7667 -76.0000 67° East 144 166 4,600  Level Philadelphia TRACON
01:24PM 39.8000 -75.9500 49° Northeast 142 163 4,600  Level Philadelphia TRACON
01:25PM 39.4983 -76.1587 49° Northeast  Level Estimated
01:25PM 39.8333 -75.9000 49° Northeast 149 171 4,600  Level Philadelphia TRACON
01:26PM 39.8500 -75.8667 57° Northeast 144 166 4,700  Climbing Philadelphia TRACON
01:27PM 39.8667 -75.8167 67° East 143 165 4,700 -60 Level Philadelphia TRACON
01:28PM 39.9000 -75.7833 37° Northeast 137 158 4,600 -60 Descending Philadelphia TRACON
01:29PM 39.9167 -75.7333 66° East 138 159 4,600  Level Philadelphia TRACON
01:30PM 39.9333 -75.7000 57° Northeast 142 163 4,600  Level Philadelphia TRACON
01:31PM 39.9667 -75.6667 37° Northeast 133 153 4,700  Climbing Philadelphia TRACON
01:32PM 39.9833 -75.6333 57° Northeast 145 167 4,700 -60 Level Philadelphia TRACON
01:33PM 40.0000 -75.5667 72° East 154 177 4,600 -120 Descending Philadelphia TRACON
01:33PM 40.0167 -75.5500 37° Northeast 129 148 4,500 -60 Descending Philadelphia TRACON
01:35PM 40.0500 -75.5000 49° Northeast 139 160 4,500  Level Philadelphia TRACON
01:36PM 40.0667 -75.4500 66° East 144 166 4,500  Level Philadelphia TRACON
01:37PM 40.1000 -75.4167 37° Northeast 139 160 4,500  Level Philadelphia TRACON
01:38PM 40.1167 -75.3667 66° East 130 150 4,600  Climbing Philadelphia TRACON
01:39PM 40.1333 -75.3333 57° Northeast 144 166 4,500 -60 Descending Philadelphia TRACON
01:40PM 40.1667 -75.2833 49° Northeast 125 144 4,500  Level Philadelphia TRACON
01:41PM 40.1833 -75.2500 57° Northeast 140 161 4,500  Level Philadelphia TRACON
01:42PM 40.2000 -75.2000 66° East 126 145 4,500  Level Philadelphia TRACON
01:43PM 40.2167 -75.1667 57° Northeast 135 155 4,500  Level Philadelphia TRACON
01:44PM 40.2500 -75.1333 37° Northeast 134 154 4,500  Level Philadelphia TRACON
01:45PM 40.2667 -75.0833 66° East 140 161 4,500  Level Philadelphia TRACON
01:46PM 40.2833 -75.0500 57° Northeast 136 157 4,500  Level Philadelphia TRACON
01:47PM 40.3167 -75.0167 37° Northeast 137 158 4,500  Level Philadelphia TRACON
01:48PM 40.3333 -74.9667 66° East 133 153 4,500 -180 Level Philadelphia TRACON
01:49PM 40.3500 -74.9333 57° Northeast 136 157 4,200 -360 Descending Philadelphia TRACON
01:50PM 40.3667 -74.8833 66° East 138 159 3,800 -360 Descending New York TRACON
01:51PM 40.4000 -74.8500 37° Northeast 138 159 3,500 -480 Descending New York TRACON
01:52PM 40.4167 -74.8167 57° Northeast 136 157 3,000 -540 Descending New York TRACON
01:53PM 40.4333 -74.7667 66° East 133 153 2,600 -480 Descending New York TRACON
01:54PM 40.4500 -74.7333 57° Northeast 131 151 2,000 -600 Descending New York TRACON
01:56PM 40.4904 -74.6272 52° Northeast  Level FlightAware Approximate
02:03PM 40.5167 -74.5833 52° Northeast  Level FlightAware Approximate
02:04PM 40.5244 -74.5983 52° Northeast  Level Estimated
02:05PM 40.5244 -74.5983 52° Northeast  Level Estimated